Time;durP1;ratioP1;P1;durP2;ratioP2;P2;SDS_P1;SDS_P2;PMS_P1;PMS_P2;Temp;Humidity;BMP_temperature;BMP_pressure;BME280_temperature;BME280_humidity;BME280_pressure;Samples;Min_cycle;Max_cycle;Signal;HPM_P1;HPM_P2
2023/05/10 00:01:47;;;;;;;23.17;17.45;;;14.00;99.90;;;;;;5000242;28;20077;-58
2023/05/10 00:04:13;;;;;;;24.90;18.48;;;14.00;99.90;;;;;;5005950;28;20046;-58
2023/05/10 00:06:39;;;;;;;27.77;18.73;;;13.90;99.90;;;;;;5003818;28;20060;-58
2023/05/10 00:09:04;;;;;;;25.25;19.02;;;14.10;99.90;;;;;;5006966;28;20033;-57
2023/05/10 00:11:30;;;;;;;27.08;19.60;;;14.00;99.90;;;;;;5002368;28;20050;-58
2023/05/10 00:13:55;;;;;;;28.40;19.35;;;13.80;99.90;;;;;;4999026;28;20133;-58
2023/05/10 00:16:21;;;;;;;27.90;19.33;;;13.90;99.90;;;;;;4995688;28;20053;-58
2023/05/10 00:18:46;;;;;;;26.92;19.95;;;13.80;99.90;;;;;;5007572;28;20041;-58
2023/05/10 00:21:12;;;;;;;26.33;19.75;;;14.00;99.90;;;;;;5002933;28;20117;-58
2023/05/10 00:23:37;;;;;;;26.85;19.48;;;13.90;99.90;;;;;;5003034;28;20058;-58
2023/05/10 00:26:03;;;;;;;26.38;18.92;;;13.80;99.90;;;;;;5005963;28;20084;-58
2023/05/10 00:28:29;;;;;;;25.85;19.25;;;13.80;99.90;;;;;;5003385;28;20100;-58
2023/05/10 00:30:55;;;;;;;26.15;19.63;;;13.90;99.90;;;;;;4999006;28;20465;-58
2023/05/10 00:33:20;;;;;;;28.48;20.30;;;14.00;99.90;;;;;;4997755;28;20171;-58
2023/05/10 00:35:46;;;;;;;26.05;18.60;;;13.90;99.90;;;;;;5006019;28;20030;-58
2023/05/10 00:38:12;;;;;;;29.13;19.85;;;13.90;99.90;;;;;;4998081;28;20037;-58
2023/05/10 00:40:37;;;;;;;26.92;19.70;;;13.80;99.90;;;;;;5004662;28;20029;-58
2023/05/10 00:43:03;;;;;;;30.42;20.00;;;13.90;99.90;;;;;;5010354;28;20041;-58
2023/05/10 00:45:31;;;;;;;29.77;20.40;;;14.00;99.90;;;;;;5004243;28;20034;-58
2023/05/10 00:47:56;;;;;;;30.17;20.25;;;13.90;99.90;;;;;;5003901;28;20052;-58
2023/05/10 00:50:23;;;;;;;30.83;20.58;;;14.00;99.90;;;;;;5004605;28;20505;-58
2023/05/10 00:52:49;;;;;;;31.35;21.63;;;14.10;99.90;;;;;;4989384;28;20030;-58
2023/05/10 00:55:15;;;;;;;31.50;21.52;;;14.00;99.90;;;;;;5006956;28;20143;-58
2023/05/10 00:57:42;;;;;;;29.75;20.80;;;13.90;99.90;;;;;;5008233;28;20393;-58
2023/05/10 01:00:08;;;;;;;32.63;22.13;;;14.00;99.90;;;;;;5009130;28;20030;-57
2023/05/10 01:02:35;;;;;;;36.55;23.05;;;13.90;99.90;;;;;;5006419;28;20644;-58
2023/05/10 01:05:03;;;;;;;35.08;23.50;;;14.00;99.90;;;;;;5000987;28;20030;-58
2023/05/10 01:07:29;;;;;;;33.47;22.80;;;14.10;99.90;;;;;;5000623;28;20085;-58
2023/05/10 01:09:55;;;;;;;34.38;23.05;;;14.10;99.90;;;;;;5002273;28;20054;-58
2023/05/10 01:12:21;;;;;;;37.17;23.13;;;14.20;99.90;;;;;;4996896;28;20034;-58
2023/05/10 01:14:47;;;;;;;38.47;23.23;;;14.00;99.90;;;;;;5002379;28;20033;-58
2023/05/10 01:17:14;;;;;;;36.25;22.92;;;14.10;99.90;;;;;;4997787;28;20041;-58
2023/05/10 01:19:40;;;;;;;35.20;22.25;;;14.10;99.90;;;;;;4998207;28;20034;-58
2023/05/10 01:22:24;;;;;;;29.92;20.88;;;14.10;99.90;;;;;;5000785;28;20072;-58
2023/05/10 01:25:18;;;;;;;30.77;19.85;;;14.20;99.90;;;;;;5001372;28;20056;-58
2023/05/10 01:27:55;;;;;;;30.73;20.35;;;14.10;99.90;;;;;;4981980;28;20501;-58
2023/05/10 01:30:58;;;;;;;29.60;19.00;;;14.10;99.90;;;;;;4994866;28;20029;-58
2023/05/10 01:33:59;;;;;;;28.13;19.90;;;13.90;99.90;;;;;;5007779;28;20064;-58
2023/05/10 01:36:39;;;;;;;26.40;17.33;;;14.00;99.90;;;;;;5000434;28;20053;-58
2023/05/10 01:39:20;;;;;;;28.55;17.65;;;14.10;99.90;;;;;;4980373;28;20088;-58
2023/05/10 01:42:10;;;;;;;28.30;17.50;;;14.10;99.90;;;;;;5000094;28;20038;-58
2023/05/10 01:44:47;;;;;;;25.23;16.42;;;14.30;99.90;;;;;;5010981;28;20113;-58
2023/05/10 01:47:25;;;;;;;27.90;17.85;;;14.20;99.90;;;;;;5002001;28;20038;-58
2023/05/10 01:49:54;;;;;;;29.08;18.15;;;14.20;99.90;;;;;;4980954;28;20041;-58
2023/05/10 01:52:28;;;;;;;25.63;16.45;;;14.10;99.90;;;;;;4998621;28;20045;-58
2023/05/10 01:55:04;;;;;;;26.95;17.90;;;14.10;99.90;;;;;;5009501;28;20172;-59
2023/05/10 01:57:34;;;;;;;27.13;17.67;;;14.20;99.90;;;;;;5001475;28;20038;-58
2023/05/10 02:00:03;;;;;;;25.30;17.40;;;14.20;99.90;;;;;;5008972;28;20033;-58
2023/05/10 02:02:32;;;;;;;24.92;15.95;;;14.00;99.90;;;;;;5003542;28;20042;-58
2023/05/10 02:04:59;;;;;;;24.83;17.00;;;14.10;99.90;;;;;;5000442;28;20064;-58
2023/05/10 02:07:28;;;;;;;28.98;17.45;;;14.10;99.90;;;;;;5001778;28;20643;-58
2023/05/10 02:09:55;;;;;;;26.00;17.42;;;14.20;99.90;;;;;;5002108;28;20034;-58
2023/05/10 02:12:23;;;;;;;28.27;18.20;;;14.30;99.90;;;;;;5001088;28;20045;-58
2023/05/10 02:14:50;;;;;;;23.55;16.23;;;14.40;99.90;;;;;;4998664;28;20148;-58
2023/05/10 02:17:17;;;;;;;27.33;17.92;;;14.50;99.90;;;;;;4994152;28;20704;-59
2023/05/10 02:19:45;;;;;;;27.25;17.40;;;15.40;99.90;;;;;;4976747;28;20454;-58
2023/05/10 02:22:11;;;;;;;24.88;17.20;;;14.50;99.90;;;;;;5001436;28;20041;-58
2023/05/10 02:24:39;;;;;;;27.58;17.38;;;14.30;99.90;;;;;;4999225;28;20030;-58
2023/05/10 02:27:06;;;;;;;25.80;17.13;;;14.40;99.90;;;;;;5000243;28;20038;-58
2023/05/10 02:29:33;;;;;;;23.05;15.70;;;14.30;99.90;;;;;;5003677;28;20046;-58
2023/05/10 02:31:59;;;;;;;22.08;14.65;;;14.30;99.90;;;;;;5009720;28;20576;-58
2023/05/10 02:34:29;;;;;;;23.50;16.20;;;14.10;99.90;;;;;;4991268;28;20603;-59
2023/05/10 02:36:56;;;;;;;20.90;15.32;;;14.30;99.90;;;;;;5001162;28;20115;-58
2023/05/10 02:39:22;;;;;;;21.33;15.07;;;14.10;99.90;;;;;;5004205;28;20042;-59
2023/05/10 02:41:50;;;;;;;20.65;14.77;;;14.10;99.90;;;;;;5000940;28;20422;-59
2023/05/10 02:44:18;;;;;;;25.58;15.85;;;14.30;99.90;;;;;;5003269;28;21273;-59
2023/05/10 02:46:45;;;;;;;20.92;15.18;;;14.30;99.90;;;;;;4992647;28;20038;-59
2023/05/10 02:49:11;;;;;;;22.02;15.00;;;14.30;99.90;;;;;;5003856;28;20091;-58
2023/05/10 02:51:42;;;;;;;20.25;14.05;;;14.20;99.90;;;;;;5010673;28;20041;-58
2023/05/10 02:54:15;;;;;;;21.55;15.15;;;14.10;99.90;;;;;;5001949;28;20040;-58
2023/05/10 02:56:46;;;;;;;21.20;15.98;;;14.20;99.90;;;;;;5000796;28;20041;-59
2023/05/10 02:59:12;;;;;;;24.88;16.77;;;14.10;99.90;;;;;;4994830;28;20393;-58
2023/05/10 03:01:38;;;;;;;23.80;16.05;;;14.40;99.90;;;;;;5001664;28;20044;-58
2023/05/10 03:04:04;;;;;;;22.80;15.55;;;14.40;99.90;;;;;;5002430;28;20258;-58
2023/05/10 03:06:29;;;;;;;19.67;14.75;;;14.30;99.90;;;;;;4999452;28;20049;-58
2023/05/10 03:08:56;;;;;;;21.48;15.23;;;14.50;99.90;;;;;;5002336;28;20132;-59
2023/05/10 03:12:01;;;;;;;21.20;15.77;;;14.50;99.90;;;;;;4998404;28;20045;-59
2023/05/10 03:15:17;;;;;;;21.38;15.13;;;13.80;99.90;;;;;;5008059;28;20622;-59
2023/05/10 03:18:05;;;;;;;20.90;14.73;;;15.00;99.90;;;;;;4914875;29;20048;-59
2023/05/10 03:20:43;;;;;;;24.67;14.98;;;14.00;99.90;;;;;;4924610;29;20747;-59
2023/05/10 03:23:31;;;;;;;23.05;15.10;;;14.40;99.90;;;;;;4978761;28;20037;-58
2023/05/10 03:25:59;;;;;;;23.17;15.43;;;14.20;99.90;;;;;;4994761;28;20030;-59
2023/05/10 03:28:26;;;;;;;24.98;16.75;;;14.20;99.90;;;;;;4999046;28;20042;-59
2023/05/10 03:30:54;;;;;;;24.15;16.60;;;14.70;99.90;;;;;;4996663;28;20034;-59
2023/05/10 03:33:20;;;;;;;22.27;16.10;;;14.20;99.90;;;;;;4997910;28;20453;-59
2023/05/10 03:35:45;;;;;;;25.70;16.77;;;14.20;99.90;;;;;;4998113;28;20033;-59
2023/05/10 03:38:12;;;;;;;25.90;17.13;;;14.30;99.90;;;;;;4973798;28;20558;-59
2023/05/10 03:40:37;;;;;;;26.80;18.15;;;14.20;99.90;;;;;;4983296;28;20120;-59
2023/05/10 03:43:03;;;;;;;28.20;18.25;;;14.20;99.90;;;;;;5006419;28;20497;-58
2023/05/10 03:45:29;;;;;;;29.20;18.58;;;14.30;99.90;;;;;;4998989;28;20041;-59
2023/05/10 03:47:55;;;;;;;28.55;18.90;;;14.40;99.90;;;;;;5005877;28;20033;-59
2023/05/10 03:50:21;;;;;;;31.98;19.80;;;14.40;99.90;;;;;;4996742;28;20647;-59
2023/05/10 03:52:46;;;;;;;32.00;20.60;;;14.40;99.90;;;;;;4997170;28;20041;-59
2023/05/10 03:55:12;;;;;;;30.67;19.13;;;14.20;99.90;;;;;;5005992;28;20480;-59
2023/05/10 03:57:37;;;;;;;29.90;19.90;;;14.40;99.90;;;;;;5011421;28;20112;-59
2023/05/10 04:00:04;;;;;;;33.03;20.90;;;14.40;99.90;;;;;;4999096;28;20069;-58
2023/05/10 04:02:30;;;;;;;33.10;20.40;;;14.40;99.90;;;;;;5003845;28;20265;-59
2023/05/10 04:04:55;;;;;;;30.77;20.65;;;14.30;99.90;;;;;;5009364;28;20032;-59
2023/05/10 04:07:21;;;;;;;35.75;21.63;;;14.30;99.90;;;;;;5002530;28;20040;-59
2023/05/10 04:09:47;;;;;;;35.72;22.75;;;14.40;99.90;;;;;;5002543;28;20049;-59
2023/05/10 04:12:13;;;;;;;37.22;22.45;;;14.30;99.90;;;;;;5008527;28;20046;-58
2023/05/10 04:14:38;;;;;;;38.80;24.30;;;14.40;99.90;;;;;;5007681;28;20675;-59
2023/05/10 04:17:04;;;;;;;42.38;24.98;;;14.40;99.90;;;;;;4996240;28;20077;-59
2023/05/10 04:19:30;;;;;;;44.65;24.75;;;14.50;99.90;;;;;;4984999;28;20100;-59
2023/05/10 04:21:56;;;;;;;42.47;24.92;;;14.40;99.90;;;;;;4997421;28;20048;-59
2023/05/10 04:24:25;;;;;;;43.90;24.85;;;14.30;99.90;;;;;;4996552;28;20050;-59
2023/05/10 04:26:50;;;;;;;45.30;25.60;;;14.50;99.90;;;;;;4996828;28;20056;-59
2023/05/10 04:29:16;;;;;;;49.30;27.92;;;14.40;99.90;;;;;;4996899;28;20045;-59
2023/05/10 04:31:42;;;;;;;46.83;28.08;;;14.40;99.90;;;;;;4993211;28;20038;-59
2023/05/10 04:34:07;;;;;;;53.60;29.45;;;14.40;99.90;;;;;;4994962;28;20046;-58
2023/05/10 04:36:35;;;;;;;54.28;30.10;;;14.40;99.90;;;;;;4988241;28;20044;-58
2023/05/10 04:39:02;;;;;;;58.80;31.30;;;14.60;99.90;;;;;;4996004;28;20054;-58
2023/05/10 04:41:28;;;;;;;55.17;29.33;;;14.70;99.90;;;;;;5010431;28;20417;-59
2023/05/10 04:43:53;;;;;;;55.83;30.88;;;14.50;99.90;;;;;;5013091;28;20080;-58
2023/05/10 04:46:19;;;;;;;55.60;30.90;;;14.50;99.90;;;;;;5003204;28;20081;-58
2023/05/10 04:48:45;;;;;;;55.50;31.20;;;14.50;99.90;;;;;;4993055;28;20401;-58
2023/05/10 04:51:10;;;;;;;52.83;31.75;;;14.50;99.90;;;;;;5010562;28;20037;-58
2023/05/10 04:53:36;;;;;;;57.03;31.98;;;14.40;99.90;;;;;;5004332;28;20045;-58
2023/05/10 04:56:01;;;;;;;62.17;33.17;;;14.50;99.90;;;;;;4992034;28;20030;-58
2023/05/10 04:58:27;;;;;;;56.88;32.15;;;14.50;99.90;;;;;;4999727;28;20053;-58
2023/05/10 05:00:53;;;;;;;59.45;33.08;;;14.40;99.90;;;;;;4994563;28;20117;-58
2023/05/10 05:03:18;;;;;;;60.88;33.05;;;14.40;99.90;;;;;;5000300;28;20034;-58
2023/05/10 05:05:44;;;;;;;60.33;33.38;;;14.50;99.90;;;;;;4985758;28;20338;-58
2023/05/10 05:08:10;;;;;;;56.60;32.17;;;14.60;99.90;;;;;;5003814;28;20026;-58
2023/05/10 05:10:35;;;;;;;60.20;31.90;;;14.60;99.90;;;;;;4997379;28;20469;-60
2023/05/10 05:13:01;;;;;;;59.95;32.40;;;14.60;99.90;;;;;;4999001;28;20038;-60
2023/05/10 05:15:27;;;;;;;65.82;33.80;;;14.60;99.90;;;;;;5001648;28;20042;-60
2023/05/10 05:17:53;;;;;;;57.17;33.15;;;14.60;99.90;;;;;;5001703;28;20073;-60
2023/05/10 05:20:18;;;;;;;62.00;33.97;;;14.70;99.90;;;;;;4992485;28;20296;-60
2023/05/10 05:22:44;;;;;;;59.47;33.08;;;14.70;99.90;;;;;;4980867;28;20037;-60
2023/05/10 05:25:11;;;;;;;57.50;32.10;;;14.70;99.90;;;;;;4997826;28;20038;-59
2023/05/10 05:27:36;;;;;;;61.80;33.83;;;14.60;99.90;;;;;;5001520;28;20482;-60
2023/05/10 05:30:04;;;;;;;59.83;33.50;;;14.60;99.90;;;;;;5010739;28;20026;-59
2023/05/10 05:32:30;;;;;;;60.97;32.58;;;14.50;99.90;;;;;;5007274;28;20054;-60
2023/05/10 05:34:56;;;;;;;68.70;34.33;;;14.50;99.90;;;;;;5013041;28;20086;-60
2023/05/10 05:37:22;;;;;;;69.00;35.38;;;14.60;99.90;;;;;;5005588;28;20513;-60
2023/05/10 05:39:48;;;;;;;66.63;36.03;;;14.60;99.90;;;;;;4997822;28;20049;-60
2023/05/10 05:42:16;;;;;;;69.15;35.80;;;14.60;99.90;;;;;;5003923;28;20247;-60
2023/05/10 05:44:42;;;;;;;72.05;36.75;;;14.60;99.90;;;;;;5004544;28;20037;-60
2023/05/10 05:47:07;;;;;;;64.35;34.97;;;14.60;99.90;;;;;;5001990;28;20056;-59
2023/05/10 05:49:33;;;;;;;70.35;36.05;;;14.70;99.90;;;;;;5004843;28;20042;-60
2023/05/10 05:52:00;;;;;;;73.90;36.58;;;14.60;99.90;;;;;;5004359;28;20123;-60
2023/05/10 05:54:26;;;;;;;69.68;35.30;;;14.70;99.90;;;;;;5003339;28;20081;-60
2023/05/10 05:56:55;;;;;;;80.45;38.45;;;14.70;99.90;;;;;;5003299;28;20034;-60
2023/05/10 05:59:21;;;;;;;75.97;38.45;;;14.50;99.90;;;;;;5007207;28;20164;-60
2023/05/10 06:01:47;;;;;;;72.70;36.78;;;14.60;99.90;;;;;;4990201;28;20034;-60
2023/05/10 06:04:12;;;;;;;76.95;37.60;;;14.60;99.90;;;;;;5011126;28;20030;-60
2023/05/10 06:06:38;;;;;;;77.35;37.13;;;14.80;99.90;;;;;;4999278;28;20115;-60
2023/05/10 06:09:03;;;;;;;80.15;37.80;;;14.70;99.90;;;;;;4992901;28;20104;-60
2023/05/10 06:11:31;;;;;;;74.32;37.72;;;14.80;99.90;;;;;;5011833;28;20408;-61
2023/05/10 06:13:57;;;;;;;80.88;36.78;;;14.70;99.90;;;;;;5012791;28;20117;-60
2023/05/10 06:16:23;;;;;;;75.63;36.55;;;14.80;99.90;;;;;;4985468;28;20565;-60
2023/05/10 06:18:48;;;;;;;78.82;38.17;;;14.80;99.90;;;;;;5002227;28;20033;-60
2023/05/10 06:21:14;;;;;;;75.45;36.90;;;14.60;99.90;;;;;;4985747;28;20037;-60
2023/05/10 06:23:40;;;;;;;74.68;37.50;;;14.60;99.90;;;;;;4989301;28;20311;-61
2023/05/10 06:26:06;;;;;;;82.65;37.25;;;14.70;99.90;;;;;;4980817;28;20061;-60
2023/05/10 06:28:32;;;;;;;78.35;38.78;;;13.90;99.90;;;;;;4996249;28;20045;-60
2023/05/10 06:30:58;;;;;;;79.60;37.67;;;14.50;99.90;;;;;;5004488;28;20060;-61
2023/05/10 06:33:23;;;;;;;77.82;38.53;;;14.70;99.90;;;;;;4989839;28;20470;-60
2023/05/10 06:35:49;;;;;;;81.32;37.78;;;14.70;99.90;;;;;;5002537;28;20064;-60
2023/05/10 06:38:15;;;;;;;81.60;37.38;;;14.70;99.90;;;;;;5004712;28;20041;-61
2023/05/10 06:40:43;;;;;;;78.15;37.95;;;14.70;99.90;;;;;;5002464;28;20385;-60
2023/05/10 06:43:09;;;;;;;84.80;37.88;;;14.50;99.90;;;;;;5005396;28;20068;-60
2023/05/10 06:45:35;;;;;;;81.30;37.33;;;14.60;99.90;;;;;;5005319;28;20144;-61
2023/05/10 06:48:01;;;;;;;82.35;39.17;;;14.70;99.90;;;;;;4997881;28;20033;-60
2023/05/10 06:50:27;;;;;;;82.32;36.33;;;14.60;99.90;;;;;;4982413;28;20245;-60
2023/05/10 06:52:52;;;;;;;76.15;35.72;;;14.50;99.90;;;;;;4994807;28;20837;-60
2023/05/10 06:55:18;;;;;;;77.03;36.55;;;14.50;99.90;;;;;;4993278;28;20145;-60
2023/05/10 06:57:44;;;;;;;77.18;36.00;;;14.60;99.90;;;;;;4993684;28;20129;-60
2023/05/10 07:00:10;;;;;;;75.60;36.72;;;14.60;99.90;;;;;;4999826;28;20038;-60
2023/05/10 07:02:35;;;;;;;78.95;37.65;;;14.70;99.90;;;;;;5001495;28;20042;-60
2023/05/10 07:05:01;;;;;;;80.60;37.15;;;14.70;99.90;;;;;;4995332;28;20036;-60
2023/05/10 07:07:27;;;;;;;88.38;38.10;;;14.70;99.90;;;;;;5003807;28;20037;-60
2023/05/10 07:09:53;;;;;;;83.57;36.65;;;14.90;99.90;;;;;;5005569;28;20049;-60
2023/05/10 07:12:19;;;;;;;79.13;37.40;;;14.90;99.90;;;;;;5007026;28;20251;-60
2023/05/10 07:14:45;;;;;;;80.90;35.95;;;15.00;99.90;;;;;;4993518;28;20113;-60
2023/05/10 07:17:11;;;;;;;77.55;36.67;;;15.00;99.90;;;;;;4997527;28;20772;-59
2023/05/10 07:19:36;;;;;;;78.20;37.08;;;15.10;99.90;;;;;;5000143;28;20378;-60
2023/05/10 07:22:03;;;;;;;76.28;35.42;;;15.10;99.90;;;;;;5000224;28;21204;-59
2023/05/10 07:24:28;;;;;;;79.18;37.22;;;15.30;99.90;;;;;;5000628;28;20042;-60
2023/05/10 07:26:54;;;;;;;80.57;35.92;;;15.30;99.90;;;;;;4974247;28;20049;-60
2023/05/10 07:29:20;;;;;;;82.45;36.58;;;15.40;99.90;;;;;;4991381;28;20038;-60
2023/05/10 07:31:45;;;;;;;85.50;37.65;;;15.70;99.90;;;;;;4999944;28;20096;-60
2023/05/10 07:34:11;;;;;;;90.70;38.35;;;15.40;99.90;;;;;;4995715;28;20046;-60
2023/05/10 07:36:36;;;;;;;81.53;37.72;;;15.40;99.90;;;;;;4978894;28;20153;-61
2023/05/10 07:39:02;;;;;;;92.22;40.17;;;15.50;99.90;;;;;;4993354;28;20048;-59
2023/05/10 07:41:28;;;;;;;88.40;39.08;;;15.60;99.90;;;;;;4989866;28;20548;-61
2023/05/10 07:43:53;;;;;;;97.95;40.80;;;15.50;99.90;;;;;;4992278;28;20804;-61
2023/05/10 07:46:19;;;;;;;92.97;41.55;;;15.50;99.90;;;;;;4993793;28;20393;-60
2023/05/10 07:48:45;;;;;;;88.47;39.65;;;15.50;99.90;;;;;;4993412;28;20042;-60
2023/05/10 07:51:11;;;;;;;88.97;39.60;;;15.60;99.90;;;;;;4987781;28;21670;-61
2023/05/10 07:53:37;;;;;;;85.60;38.30;;;15.60;99.90;;;;;;5000112;28;20140;-60
2023/05/10 07:56:25;;;;;;;78.72;37.20;;;15.60;99.90;;;;;;4988104;28;20038;-60
2023/05/10 07:58:51;;;;;;;81.63;38.13;;;15.70;99.90;;;;;;4991386;28;20034;-61
2023/05/10 08:01:16;;;;;;;77.32;38.15;;;15.60;99.90;;;;;;4966527;28;20061;-60
2023/05/10 08:03:42;;;;;;;74.47;36.60;;;15.60;99.90;;;;;;4998780;28;20033;-61
2023/05/10 08:06:08;;;;;;;73.05;35.75;;;15.60;99.90;;;;;;4988757;28;20076;-60
2023/05/10 08:08:34;;;;;;;72.10;36.10;;;15.40;99.90;;;;;;4989153;28;20363;-61
2023/05/10 08:11:02;;;;;;;75.65;37.85;;;15.50;99.90;;;;;;4986102;28;20330;-61
2023/05/10 08:13:28;;;;;;;79.30;38.42;;;15.60;99.90;;;;;;4985886;28;20041;-61
2023/05/10 08:15:53;;;;;;;68.32;36.78;;;15.60;99.90;;;;;;4986181;28;20050;-61
2023/05/10 08:18:19;;;;;;;62.63;36.33;;;15.40;99.90;;;;;;4993754;28;20030;-61
2023/05/10 08:20:45;;;;;;;69.78;35.60;;;15.60;99.90;;;;;;4990557;28;20152;-61
2023/05/10 08:23:12;;;;;;;60.30;33.72;;;15.60;99.90;;;;;;4986059;28;20033;-61
2023/05/10 08:25:38;;;;;;;57.97;31.73;;;15.60;99.90;;;;;;4991112;28;20034;-61
2023/05/10 08:28:04;;;;;;;49.03;27.80;;;15.60;99.90;;;;;;4973738;28;20037;-60
2023/05/10 08:30:30;;;;;;;48.53;27.45;;;15.60;99.90;;;;;;4989764;28;20034;-61
2023/05/10 08:32:55;;;;;;;53.47;28.23;;;15.70;99.90;;;;;;4989816;28;20106;-61
2023/05/10 08:35:21;;;;;;;51.00;28.80;;;15.80;99.90;;;;;;4990769;28;20047;-61
2023/05/10 08:37:46;;;;;;;52.00;30.00;;;15.80;99.90;;;;;;5002339;28;20065;-62
2023/05/10 08:40:14;;;;;;;54.33;29.65;;;15.80;99.90;;;;;;4993074;28;20053;-61
2023/05/10 08:42:43;;;;;;;49.97;28.73;;;16.00;99.90;;;;;;4984965;28;20034;-61
2023/05/10 08:45:11;;;;;;;48.30;28.63;;;16.00;99.90;;;;;;4983622;28;20422;-61
2023/05/10 08:47:37;;;;;;;53.22;29.95;;;16.10;99.90;;;;;;4984403;28;20142;-61
2023/05/10 08:50:04;;;;;;;47.83;29.45;;;16.10;99.90;;;;;;4984607;28;20045;-61
2023/05/10 08:52:31;;;;;;;46.05;28.63;;;16.10;99.90;;;;;;4991324;28;20049;-61
2023/05/10 08:54:57;;;;;;;48.17;26.92;;;16.10;99.90;;;;;;4995954;28;20066;-62
2023/05/10 08:57:23;;;;;;;44.13;27.95;;;16.10;99.90;;;;;;4993504;28;20042;-61
2023/05/10 08:59:49;;;;;;;41.25;26.20;;;15.90;99.90;;;;;;4991850;28;20433;-61
2023/05/10 09:02:15;;;;;;;45.13;27.42;;;15.70;99.90;;;;;;4996080;28;20305;-61
2023/05/10 09:04:41;;;;;;;40.88;25.48;;;15.70;99.90;;;;;;4991536;28;20038;-62
2023/05/10 09:07:07;;;;;;;38.75;24.80;;;15.70;99.90;;;;;;4992710;28;20120;-60
2023/05/10 09:09:34;;;;;;;41.58;23.35;;;15.80;99.90;;;;;;4988908;28;20053;-62
2023/05/10 09:12:00;;;;;;;36.40;24.25;;;15.80;99.90;;;;;;4991452;28;20661;-61
2023/05/10 09:14:26;;;;;;;35.58;22.38;;;15.90;99.90;;;;;;4990338;28;20046;-62
2023/05/10 09:16:55;;;;;;;36.55;23.20;;;15.90;99.90;;;;;;4986991;28;20537;-61
2023/05/10 09:19:20;;;;;;;34.10;21.30;;;15.90;99.90;;;;;;4993654;28;20084;-61
2023/05/10 09:21:46;;;;;;;35.20;21.92;;;15.80;99.90;;;;;;4991432;28;20469;-61
2023/05/10 09:24:12;;;;;;;33.45;21.55;;;15.60;99.90;;;;;;4986692;28;20252;-61
2023/05/10 09:26:47;;;;;;;34.08;23.23;;;15.60;99.90;;;;;;4989124;28;20489;-61
2023/05/10 09:29:14;;;;;;;38.08;22.30;;;15.40;99.90;;;;;;4991131;28;20046;-62
2023/05/10 09:31:54;;;;;;;30.48;21.38;;;15.40;99.90;;;;;;4995477;28;20513;-61
2023/05/10 09:34:31;;;;;;;32.88;21.70;;;15.50;99.90;;;;;;4989895;28;20042;-62
2023/05/10 09:37:00;;;;;;;35.17;22.55;;;15.40;99.90;;;;;;4992554;28;20742;-62
2023/05/10 09:39:38;;;;;;;35.20;22.50;;;15.40;99.90;;;;;;4992930;28;20042;-61
2023/05/10 09:42:06;;;;;;;34.55;23.58;;;15.20;99.90;;;;;;5000739;28;20197;-61
2023/05/10 09:44:32;;;;;;;38.97;24.05;;;15.20;99.90;;;;;;4994538;28;20041;-61
2023/05/10 09:46:59;;;;;;;39.97;24.20;;;15.20;99.90;;;;;;4992366;28;20042;-62
2023/05/10 09:49:24;;;;;;;38.88;24.13;;;15.20;99.90;;;;;;4991587;28;20069;-61
2023/05/10 09:52:04;;;;;;;38.83;24.65;;;15.00;99.90;;;;;;5005670;28;20537;-62
2023/05/10 09:54:31;;;;;;;39.53;24.00;;;14.90;99.90;;;;;;5002797;28;20089;-61
2023/05/10 09:56:57;;;;;;;40.55;25.73;;;15.00;99.90;;;;;;5005548;28;20577;-61
2023/05/10 09:59:25;;;;;;;40.42;24.67;;;15.00;99.90;;;;;;5007545;28;20117;-62
2023/05/10 10:01:52;;;;;;;38.65;24.23;;;15.10;99.90;;;;;;5009593;28;20481;-62
2023/05/10 10:04:19;;;;;;;38.00;24.23;;;15.20;99.90;;;;;;5005626;28;20034;-62
2023/05/10 10:06:45;;;;;;;39.58;24.55;;;15.10;99.90;;;;;;5000512;28;20144;-62
2023/05/10 10:09:10;;;;;;;36.95;25.08;;;15.30;99.90;;;;;;5002537;28;20726;-61
2023/05/10 10:11:37;;;;;;;36.67;24.27;;;15.40;99.90;;;;;;5006944;28;20049;-62
2023/05/10 10:14:04;;;;;;;41.38;25.08;;;15.70;99.90;;;;;;5003646;28;20041;-61
2023/05/10 10:16:30;;;;;;;42.70;25.10;;;15.70;99.90;;;;;;5007645;28;20042;-61
2023/05/10 10:18:56;;;;;;;40.20;23.83;;;15.70;99.90;;;;;;5003668;28;20163;-62
2023/05/10 10:21:22;;;;;;;38.50;24.35;;;15.70;99.90;;;;;;5005272;28;20052;-62
2023/05/10 10:23:48;;;;;;;52.90;23.48;;;15.80;99.90;;;;;;5005126;28;20041;-62
2023/05/10 10:26:17;;;;;;;36.25;22.52;;;15.90;99.90;;;;;;5008828;28;20038;-62
2023/05/10 10:29:03;;;;;;;33.97;21.85;;;15.80;99.90;;;;;;5002135;28;20674;-62
2023/05/10 10:31:34;;;;;;;34.92;20.88;;;15.60;99.90;;;;;;5005550;28;20527;-62
2023/05/10 10:34:06;;;;;;;29.85;19.90;;;15.70;99.90;;;;;;5001760;28;20045;-62
2023/05/10 10:36:33;;;;;;;29.52;19.65;;;15.40;99.90;;;;;;5004857;28;20386;-62
2023/05/10 10:39:08;;;;;;;30.50;20.60;;;15.60;99.90;;;;;;5000745;28;20465;-62
2023/05/10 10:41:42;;;;;;;27.63;19.92;;;15.40;99.90;;;;;;5006343;28;20096;-62
2023/05/10 10:44:38;;;;;;;30.73;19.90;;;15.50;99.90;;;;;;5000348;28;20092;-62
2023/05/10 10:47:23;;;;;;;26.02;19.02;;;15.50;99.90;;;;;;5008383;28;20033;-61
2023/05/10 10:49:51;;;;;;;26.40;17.13;;;15.70;99.90;;;;;;5005683;28;20029;-62
2023/05/10 10:52:33;;;;;;;28.50;18.92;;;15.80;99.90;;;;;;5011284;28;20405;-62
2023/05/10 10:55:12;;;;;;;25.55;17.77;;;15.90;99.90;;;;;;5006395;28;20068;-62
2023/05/10 10:57:40;;;;;;;25.23;16.55;;;15.90;99.90;;;;;;5012588;28;20037;-62
2023/05/10 11:00:34;;;;;;;24.08;17.33;;;15.90;99.90;;;;;;5012471;28;20031;-61
2023/05/10 11:03:07;;;;;;;24.48;16.77;;;15.90;99.90;;;;;;5015680;28;20029;-62
2023/05/10 11:05:32;;;;;;;24.30;16.60;;;16.00;58.50;;;;;;5005449;28;20041;-62
2023/05/10 11:08:06;;;;;;;25.63;16.88;;;16.00;37.60;;;;;;5010518;28;20033;-62
2023/05/10 11:10:32;;;;;;;22.80;16.33;;;16.10;99.90;;;;;;5011125;28;20060;-62
2023/05/10 11:13:02;;;;;;;24.15;16.02;;;16.00;3.90;;;;;;5010423;28;20128;-62
2023/05/10 11:15:32;;;;;;;22.50;16.05;;;15.90;1.00;;;;;;5000671;28;20036;-63
2023/05/10 11:17:58;;;;;;;23.10;15.43;;;16.00;1.00;;;;;;5002023;28;20448;-62
2023/05/10 11:20:32;;;;;;;22.42;15.20;;;16.10;26.60;;;;;;5006300;28;20033;-62
2023/05/10 11:23:10;;;;;;;16.77;13.18;;;16.10;1.00;;;;;;5003825;28;20038;-62
2023/05/10 11:25:41;;;;;;;19.65;12.77;;;15.90;1.00;;;;;;5008466;28;20037;-63
2023/05/10 11:28:07;;;;;;;17.20;11.85;;;15.80;25.30;;;;;;5002454;28;20389;-62
2023/05/10 11:30:33;;;;;;;16.67;12.00;;;15.80;20.00;;;;;;4992652;28;20045;-63
2023/05/10 11:32:58;;;;;;;16.60;11.93;;;15.80;20.60;;;;;;5003954;28;20046;-63
2023/05/10 11:35:27;;;;;;;16.40;11.32;;;15.70;58.60;;;;;;4983645;28;20038;-62
2023/05/10 11:37:52;;;;;;;17.52;12.10;;;15.80;62.40;;;;;;5005402;28;20038;-63
2023/05/10 11:40:18;;;;;;;15.05;12.27;;;15.50;1.00;;;;;;5008839;28;20405;-63
2023/05/10 11:42:45;;;;;;;14.45;11.45;;;15.70;10.20;;;;;;4997799;28;20309;-63
2023/05/10 11:45:11;;;;;;;19.38;12.20;;;15.90;1.00;;;;;;5005061;28;20398;-62
2023/05/10 11:47:36;;;;;;;17.55;12.70;;;16.00;18.00;;;;;;5005872;28;20095;-63
2023/05/10 11:50:03;;;;;;;19.42;13.57;;;16.20;1.00;;;;;;5014841;28;20040;-62
2023/05/10 11:52:28;;;;;;;18.75;14.05;;;16.00;1.00;;;;;;5010091;28;20045;-63
2023/05/10 11:54:54;;;;;;;17.23;14.05;;;16.20;1.00;;;;;;5002815;28;20250;-62
2023/05/10 11:57:25;;;;;;;17.83;13.82;;;16.10;1.00;;;;;;5009281;28;20067;-63
2023/05/10 11:59:56;;;;;;;16.80;13.60;;;16.10;1.00;;;;;;4984759;28;20485;-63
2023/05/10 12:02:21;;;;;;;21.38;14.82;;;16.20;1.00;;;;;;5004745;28;20050;-62
2023/05/10 12:04:47;;;;;;;18.13;14.43;;;16.20;1.00;;;;;;5005720;28;20036;-62
2023/05/10 12:07:13;;;;;;;20.45;14.88;;;16.20;1.00;;;;;;5006018;28;20170;-63
2023/05/10 12:09:43;;;;;;;19.35;15.18;;;16.30;1.00;;;;;;5006075;28;20554;-63
2023/05/10 12:12:09;;;;;;;20.10;16.30;;;16.20;1.00;;;;;;5010076;28;20064;-62
2023/05/10 12:14:35;;;;;;;20.35;16.38;;;16.40;1.00;;;;;;4991790;28;20097;-62
2023/05/10 12:17:01;;;;;;;18.63;15.27;;;16.50;1.00;;;;;;5005435;28;20042;-63
2023/05/10 12:19:27;;;;;;;21.35;15.10;;;16.80;1.00;;;;;;4989686;28;20037;-63
2023/05/10 12:21:52;;;;;;;20.38;16.10;;;16.80;1.00;;;;;;4998456;28;20100;-62
2023/05/10 12:24:19;;;;;;;20.60;15.38;;;16.90;1.00;;;;;;4998850;28;20085;-62
2023/05/10 12:26:45;;;;;;;19.23;14.73;;;17.10;1.00;;;;;;5006215;28;20256;-63
2023/05/10 12:29:18;;;;;;;18.90;15.02;;;17.30;1.00;;;;;;5001943;28;20471;-62
2023/05/10 12:31:52;;;;;;;;;;;17.40;1.00;;;;;;4985180;28;20620;-63
2023/05/10 12:34:30;;;;;;;15.48;12.77;;;17.50;1.00;;;;;;5005404;28;20431;-62